sensor_id;sensor_type;location;lat;lon;timestamp;pressure;altitude;pressure_sealevel;temperature;humidity
3748;BME280;1889;50.058;8.688;2023-04-26T00:00:07;100395.86;;;10.23;49.37
3748;BME280;1889;50.058;8.688;2023-04-26T00:02:37;100393.11;;;10.33;49.25
3748;BME280;1889;50.058;8.688;2023-04-26T00:05:07;100383.88;;;10.37;49.00
3748;BME280;1889;50.058;8.688;2023-04-26T00:07:36;100381.70;;;10.35;49.15
3748;BME280;1889;50.058;8.688;2023-04-26T00:10:07;100383.82;;;10.40;49.11
3748;BME280;1889;50.058;8.688;2023-04-26T00:12:37;100384.36;;;10.31;49.39
3748;BME280;1889;50.058;8.688;2023-04-26T00:15:08;100388.91;;;10.19;49.61
3748;BME280;1889;50.058;8.688;2023-04-26T00:17:38;100391.97;;;10.20;49.71
3748;BME280;1889;50.058;8.688;2023-04-26T00:20:08;100398.30;;;9.99;50.00
3748;BME280;1889;50.058;8.688;2023-04-26T00:22:39;100396.92;;;9.12;52.24
3748;BME280;1889;50.058;8.688;2023-04-26T00:25:09;100404.23;;;8.64;53.70
3748;BME280;1889;50.058;8.688;2023-04-26T00:27:38;100405.17;;;9.22;52.31
3748;BME280;1889;50.058;8.688;2023-04-26T00:30:08;100407.67;;;9.36;51.90
3748;BME280;1889;50.058;8.688;2023-04-26T00:32:38;100404.16;;;9.38;51.76
3748;BME280;1889;50.058;8.688;2023-04-26T00:35:08;100410.31;;;9.33;51.84
3748;BME280;1889;50.058;8.688;2023-04-26T00:37:37;100406.61;;;9.05;52.32
3748;BME280;1889;50.058;8.688;2023-04-26T00:40:07;100417.42;;;9.22;51.79
3748;BME280;1889;50.058;8.688;2023-04-26T00:42:37;100408.97;;;9.40;51.15
3748;BME280;1889;50.058;8.688;2023-04-26T00:45:07;100408.98;;;9.39;51.22
3748;BME280;1889;50.058;8.688;2023-04-26T00:47:37;100407.52;;;9.55;50.86
3748;BME280;1889;50.058;8.688;2023-04-26T00:50:07;100411.67;;;9.30;51.44
3748;BME280;1889;50.058;8.688;2023-04-26T00:52:38;100408.47;;;9.47;51.07
3748;BME280;1889;50.058;8.688;2023-04-26T00:55:08;100409.56;;;9.17;51.93
3748;BME280;1889;50.058;8.688;2023-04-26T00:57:38;100408.24;;;9.71;50.41
3748;BME280;1889;50.058;8.688;2023-04-26T01:00:08;100412.11;;;9.29;51.42
3748;BME280;1889;50.058;8.688;2023-04-26T01:02:38;100412.17;;;9.23;51.64
3748;BME280;1889;50.058;8.688;2023-04-26T01:05:08;100414.23;;;9.39;51.47
3748;BME280;1889;50.058;8.688;2023-04-26T01:07:38;100413.87;;;9.27;51.71
3748;BME280;1889;50.058;8.688;2023-04-26T01:10:08;100419.50;;;9.34;51.61
3748;BME280;1889;50.058;8.688;2023-04-26T01:12:38;100414.37;;;9.21;51.98
3748;BME280;1889;50.058;8.688;2023-04-26T01:15:07;100412.60;;;9.24;52.00
3748;BME280;1889;50.058;8.688;2023-04-26T01:17:37;100409.94;;;9.26;51.92
3748;BME280;1889;50.058;8.688;2023-04-26T01:20:07;100409.98;;;9.24;51.85
3748;BME280;1889;50.058;8.688;2023-04-26T01:22:37;100399.85;;;9.30;51.70
3748;BME280;1889;50.058;8.688;2023-04-26T01:25:07;100404.72;;;9.24;51.87
3748;BME280;1889;50.058;8.688;2023-04-26T01:27:38;100400.72;;;9.32;51.92
3748;BME280;1889;50.058;8.688;2023-04-26T01:30:09;100404.36;;;9.12;52.24
3748;BME280;1889;50.058;8.688;2023-04-26T01:32:38;100400.09;;;8.99;52.58
3748;BME280;1889;50.058;8.688;2023-04-26T01:35:08;100401.74;;;9.09;52.49
3748;BME280;1889;50.058;8.688;2023-04-26T01:41:00;100399.66;;;9.00;52.56
3748;BME280;1889;50.058;8.688;2023-04-26T01:43:29;100399.72;;;8.89;52.64
3748;BME280;1889;50.058;8.688;2023-04-26T01:45:59;100403.70;;;8.80;52.91
3748;BME280;1889;50.058;8.688;2023-04-26T01:48:29;100404.23;;;8.66;53.24
3748;BME280;1889;50.058;8.688;2023-04-26T01:50:58;100404.36;;;8.37;53.84
3748;BME280;1889;50.058;8.688;2023-04-26T01:53:28;100413.13;;;8.31;54.02
3748;BME280;1889;50.058;8.688;2023-04-26T01:56:01;100405.55;;;8.63;53.55
3748;BME280;1889;50.058;8.688;2023-04-26T01:58:31;100408.69;;;8.50;53.53
3748;BME280;1889;50.058;8.688;2023-04-26T02:01:07;100415.69;;;8.48;53.55
3748;BME280;1889;50.058;8.688;2023-04-26T02:03:37;100412.19;;;8.46;53.51
3748;BME280;1889;50.058;8.688;2023-04-26T02:06:06;100406.47;;;8.57;53.22
3748;BME280;1889;50.058;8.688;2023-04-26T02:08:36;100409.97;;;8.52;53.26
3748;BME280;1889;50.058;8.688;2023-04-26T02:11:05;100413.16;;;8.15;54.02
3748;BME280;1889;50.058;8.688;2023-04-26T02:13:34;100414.13;;;7.76;54.74
3748;BME280;1889;50.058;8.688;2023-04-26T02:16:04;100422.02;;;7.50;55.65
3748;BME280;1889;50.058;8.688;2023-04-26T02:18:34;100419.27;;;8.14;54.42
3748;BME280;1889;50.058;8.688;2023-04-26T02:21:10;100419.62;;;8.43;53.28
3748;BME280;1889;50.058;8.688;2023-04-26T02:23:36;100414.03;;;8.15;53.89
3748;BME280;1889;50.058;8.688;2023-04-26T02:26:05;100418.34;;;8.39;53.50
3748;BME280;1889;50.058;8.688;2023-04-26T02:28:35;100424.06;;;8.34;53.59
3748;BME280;1889;50.058;8.688;2023-04-26T02:31:04;100416.29;;;7.94;54.49
3748;BME280;1889;50.058;8.688;2023-04-26T02:33:36;100415.39;;;7.98;54.31
3748;BME280;1889;50.058;8.688;2023-04-26T02:36:06;100420.61;;;8.06;54.13
3748;BME280;1889;50.058;8.688;2023-04-26T02:38:36;100417.08;;;8.12;53.96
3748;BME280;1889;50.058;8.688;2023-04-26T02:41:05;100421.84;;;8.29;53.80
3748;BME280;1889;50.058;8.688;2023-04-26T02:43:34;100421.84;;;8.36;53.72
3748;BME280;1889;50.058;8.688;2023-04-26T02:46:06;100419.69;;;8.27;53.79
3748;BME280;1889;50.058;8.688;2023-04-26T02:48:35;100423.62;;;8.31;53.62
3748;BME280;1889;50.058;8.688;2023-04-26T02:51:05;100421.97;;;7.80;54.40
3748;BME280;1889;50.058;8.688;2023-04-26T02:53:34;100422.39;;;7.89;54.40
3748;BME280;1889;50.058;8.688;2023-04-26T02:56:03;100422.85;;;7.84;54.63
3748;BME280;1889;50.058;8.688;2023-04-26T02:58:33;100415.85;;;7.80;54.53
3748;BME280;1889;50.058;8.688;2023-04-26T03:01:02;100413.25;;;7.84;54.60
3748;BME280;1889;50.058;8.688;2023-04-26T03:03:32;100412.33;;;8.00;54.30
3748;BME280;1889;50.058;8.688;2023-04-26T03:06:02;100411.84;;;8.12;54.15
3748;BME280;1889;50.058;8.688;2023-04-26T03:08:31;100413.19;;;8.10;54.03
3748;BME280;1889;50.058;8.688;2023-04-26T03:11:02;100412.83;;;7.77;54.55
3748;BME280;1889;50.058;8.688;2023-04-26T03:13:31;100417.09;;;8.18;53.58
3748;BME280;1889;50.058;8.688;2023-04-26T03:16:01;100414.55;;;7.84;54.35
3748;BME280;1889;50.058;8.688;2023-04-26T03:18:30;100414.16;;;7.62;54.61
3748;BME280;1889;50.058;8.688;2023-04-26T03:20:59;100417.22;;;7.28;55.67
3748;BME280;1889;50.058;8.688;2023-04-26T03:23:29;100412.41;;;7.69;54.66
3748;BME280;1889;50.058;8.688;2023-04-26T03:25:58;100411.08;;;7.64;54.55
3748;BME280;1889;50.058;8.688;2023-04-26T03:28:27;100410.66;;;7.69;54.43
3748;BME280;1889;50.058;8.688;2023-04-26T03:30:57;100408.47;;;7.55;54.61
3748;BME280;1889;50.058;8.688;2023-04-26T03:33:26;100411.09;;;7.49;54.95
3748;BME280;1889;50.058;8.688;2023-04-26T03:35:55;100415.89;;;7.69;54.52
3748;BME280;1889;50.058;8.688;2023-04-26T03:38:25;100412.83;;;7.77;54.51
3748;BME280;1889;50.058;8.688;2023-04-26T03:40:54;100410.63;;;7.84;54.17
3748;BME280;1889;50.058;8.688;2023-04-26T03:43:23;100405.80;;;7.87;54.13
3748;BME280;1889;50.058;8.688;2023-04-26T03:45:52;100413.28;;;7.51;54.92
3748;BME280;1889;50.058;8.688;2023-04-26T03:48:22;100412.84;;;7.70;54.67
3748;BME280;1889;50.058;8.688;2023-04-26T03:50:51;100417.64;;;7.31;55.20
3748;BME280;1889;50.058;8.688;2023-04-26T03:53:20;100415.03;;;7.32;55.35
3748;BME280;1889;50.058;8.688;2023-04-26T03:55:50;100417.20;;;7.39;55.22
3748;BME280;1889;50.058;8.688;2023-04-26T03:58:19;100417.20;;;7.49;55.04
3748;BME280;1889;50.058;8.688;2023-04-26T04:00:48;100418.50;;;7.63;54.71
3748;BME280;1889;50.058;8.688;2023-04-26T04:03:18;100408.92;;;7.41;55.07
3748;BME280;1889;50.058;8.688;2023-04-26T04:05:48;100411.95;;;7.63;54.48
3748;BME280;1889;50.058;8.688;2023-04-26T04:08:17;100408.03;;;7.69;54.14
3748;BME280;1889;50.058;8.688;2023-04-26T04:10:47;100410.67;;;7.42;54.71
3748;BME280;1889;50.058;8.688;2023-04-26T04:13:16;100410.21;;;7.54;54.38
3748;BME280;1889;50.058;8.688;2023-04-26T04:15:45;100410.20;;;7.65;54.21
3748;BME280;1889;50.058;8.688;2023-04-26T04:18:15;100411.95;;;7.66;54.14
3748;BME280;1889;50.058;8.688;2023-04-26T04:20:45;100409.34;;;7.57;54.31
3748;BME280;1889;50.058;8.688;2023-04-26T04:23:14;100407.19;;;7.44;54.72
3748;BME280;1889;50.058;8.688;2023-04-26T04:25:44;100405.87;;;7.61;54.35
3748;BME280;1889;50.058;8.688;2023-04-26T04:28:14;100414.13;;;7.63;54.51
3748;BME280;1889;50.058;8.688;2023-04-26T04:30:44;100411.98;;;7.61;54.43
3748;BME280;1889;50.058;8.688;2023-04-26T04:33:14;100414.16;;;7.62;54.32
3748;BME280;1889;50.058;8.688;2023-04-26T04:35:45;100417.19;;;7.64;54.44
3748;BME280;1889;50.058;8.688;2023-04-26T04:38:14;100426.38;;;7.69;54.43
3748;BME280;1889;50.058;8.688;2023-04-26T04:40:43;100418.94;;;7.75;54.26
3748;BME280;1889;50.058;8.688;2023-04-26T04:43:12;100426.36;;;7.64;54.59
3748;BME280;1889;50.058;8.688;2023-04-26T04:45:42;100425.94;;;7.70;54.57
3748;BME280;1889;50.058;8.688;2023-04-26T04:48:12;100430.72;;;7.62;54.79
3748;BME280;1889;50.058;8.688;2023-04-26T04:50:41;100430.70;;;7.81;54.38
3748;BME280;1889;50.058;8.688;2023-04-26T04:53:10;100438.13;;;7.81;54.49
3748;BME280;1889;50.058;8.688;2023-04-26T04:55:43;100435.53;;;7.78;54.64
3748;BME280;1889;50.058;8.688;2023-04-26T04:58:12;100443.39;;;7.78;54.79
3748;BME280;1889;50.058;8.688;2023-04-26T05:00:42;100440.78;;;7.51;55.27
3748;BME280;1889;50.058;8.688;2023-04-26T05:03:13;100443.83;;;7.58;55.35
3748;BME280;1889;50.058;8.688;2023-04-26T05:05:43;100450.37;;;7.55;55.58
3748;BME280;1889;50.058;8.688;2023-04-26T05:08:12;100449.94;;;7.66;55.45
3748;BME280;1889;50.058;8.688;2023-04-26T05:10:41;100459.11;;;7.68;55.51
3748;BME280;1889;50.058;8.688;2023-04-26T05:13:11;100463.02;;;7.93;55.11
3748;BME280;1889;50.058;8.688;2023-04-26T05:15:40;100458.17;;;8.07;54.80
3748;BME280;1889;50.058;8.688;2023-04-26T05:18:09;100462.95;;;8.12;55.00
3748;BME280;1889;50.058;8.688;2023-04-26T05:20:39;100465.22;;;7.77;55.84
3748;BME280;1889;50.058;8.688;2023-04-26T05:23:08;100458.63;;;7.97;55.66
3748;BME280;1889;50.058;8.688;2023-04-26T05:25:38;100464.27;;;8.13;55.52
3748;BME280;1889;50.058;8.688;2023-04-26T05:28:07;100469.52;;;8.16;55.57
3748;BME280;1889;50.058;8.688;2023-04-26T05:30:38;100469.95;;;8.13;56.03
3748;BME280;1889;50.058;8.688;2023-04-26T05:33:08;100471.66;;;8.29;55.88
3748;BME280;1889;50.058;8.688;2023-04-26T05:35:38;100479.03;;;8.52;55.68
3748;BME280;1889;50.058;8.688;2023-04-26T05:38:07;100486.00;;;8.65;55.38
3748;BME280;1889;50.058;8.688;2023-04-26T05:40:36;100486.96;;;8.38;56.11
3748;BME280;1889;50.058;8.688;2023-04-26T05:43:05;100480.75;;;8.65;55.74
3748;BME280;1889;50.058;8.688;2023-04-26T05:45:35;100480.64;;;8.91;54.90
3748;BME280;1889;50.058;8.688;2023-04-26T05:48:04;100488.03;;;8.95;55.13
3748;BME280;1889;50.058;8.688;2023-04-26T05:50:34;100486.77;;;8.89;55.29
3748;BME280;1889;50.058;8.688;2023-04-26T05:53:03;100485.84;;;8.96;55.25
3748;BME280;1889;50.058;8.688;2023-04-26T05:55:33;100487.02;;;9.17;54.86
3748;BME280;1889;50.058;8.688;2023-04-26T05:58:02;100488.33;;;9.22;54.70
3748;BME280;1889;50.058;8.688;2023-04-26T06:00:32;100491.82;;;9.24;54.66
3748;BME280;1889;50.058;8.688;2023-04-26T06:03:01;100491.45;;;9.10;55.08
3748;BME280;1889;50.058;8.688;2023-04-26T06:05:31;100502.23;;;9.36;54.92
3748;BME280;1889;50.058;8.688;2023-04-26T06:08:01;100502.48;;;9.61;54.21
3748;BME280;1889;50.058;8.688;2023-04-26T06:10:31;100498.16;;;9.55;54.42
3748;BME280;1889;50.058;8.688;2023-04-26T06:13:00;100502.41;;;9.72;53.79
3748;BME280;1889;50.058;8.688;2023-04-26T06:15:30;100510.74;;;9.70;54.00
3748;BME280;1889;50.058;8.688;2023-04-26T06:17:59;100507.98;;;9.83;53.71
3748;BME280;1889;50.058;8.688;2023-04-26T06:20:28;100503.18;;;9.81;53.81
3748;BME280;1889;50.058;8.688;2023-04-26T06:22:58;100507.03;;;9.95;53.65
3748;BME280;1889;50.058;8.688;2023-04-26T06:25:27;100513.62;;;9.90;53.62
3748;BME280;1889;50.058;8.688;2023-04-26T06:27:56;100510.90;;;10.03;53.75
3748;BME280;1889;50.058;8.688;2023-04-26T06:30:26;100500.31;;;10.09;53.84
3748;BME280;1889;50.058;8.688;2023-04-26T06:32:55;100511.14;;;10.25;53.13
3748;BME280;1889;50.058;8.688;2023-04-26T06:35:26;100508.07;;;10.25;53.22
3748;BME280;1889;50.058;8.688;2023-04-26T06:37:55;100514.03;;;10.43;52.50
3748;BME280;1889;50.058;8.688;2023-04-26T06:40:24;100515.95;;;10.28;52.67
3748;BME280;1889;50.058;8.688;2023-04-26T06:43:00;100516.59;;;10.02;52.82
3748;BME280;1889;50.058;8.688;2023-04-26T06:45:25;100516.44;;;9.71;53.85
3748;BME280;1889;50.058;8.688;2023-04-26T06:47:57;100516.38;;;9.75;53.67
3748;BME280;1889;50.058;8.688;2023-04-26T06:50:27;100518.41;;;9.97;53.58
3748;BME280;1889;50.058;8.688;2023-04-26T06:52:57;100515.17;;;10.17;52.94
3748;BME280;1889;50.058;8.688;2023-04-26T06:55:26;100519.80;;;9.88;53.41
3748;BME280;1889;50.058;8.688;2023-04-26T06:57:56;100513.52;;;10.04;53.21
3748;BME280;1889;50.058;8.688;2023-04-26T07:00:25;100513.99;;;9.45;52.75
3748;BME280;1889;50.058;8.688;2023-04-26T07:02:55;100516.23;;;9.95;52.62
3748;BME280;1889;50.058;8.688;2023-04-26T07:05:25;100512.66;;;10.02;52.62
3748;BME280;1889;50.058;8.688;2023-04-26T07:07:54;100516.55;;;9.55;52.02
3748;BME280;1889;50.058;8.688;2023-04-26T07:10:23;100512.93;;;9.70;52.21
3748;BME280;1889;50.058;8.688;2023-04-26T07:12:54;100510.77;;;10.19;51.52
3748;BME280;1889;50.058;8.688;2023-04-26T07:15:23;100510.69;;;10.66;50.52
3748;BME280;1889;50.058;8.688;2023-04-26T07:17:52;100513.92;;;10.88;50.06
3748;BME280;1889;50.058;8.688;2023-04-26T07:20:22;100511.12;;;10.67;50.25
3748;BME280;1889;50.058;8.688;2023-04-26T07:22:51;100512.56;;;10.92;50.12
3748;BME280;1889;50.058;8.688;2023-04-26T07:25:20;100514.45;;;10.45;48.63
3748;BME280;1889;50.058;8.688;2023-04-26T07:27:50;100514.22;;;10.23;49.71
3748;BME280;1889;50.058;8.688;2023-04-26T07:30:19;100508.14;;;10.60;49.65
3748;BME280;1889;50.058;8.688;2023-04-26T07:32:48;100514.13;;;10.33;48.24
3748;BME280;1889;50.058;8.688;2023-04-26T07:35:18;100507.22;;;10.22;49.57
3748;BME280;1889;50.058;8.688;2023-04-26T07:37:47;100502.80;;;10.66;48.78
3748;BME280;1889;50.058;8.688;2023-04-26T07:40:16;100499.41;;;10.91;48.19
3748;BME280;1889;50.058;8.688;2023-04-26T07:42:47;100497.77;;;11.15;48.17
3748;BME280;1889;50.058;8.688;2023-04-26T07:45:16;100507.83;;;10.47;47.95
3748;BME280;1889;50.058;8.688;2023-04-26T07:47:47;100506.30;;;10.66;48.22
3748;BME280;1889;50.058;8.688;2023-04-26T07:50:16;100505.16;;;10.53;48.08
3748;BME280;1889;50.058;8.688;2023-04-26T07:52:46;100500.72;;;10.92;47.53
3748;BME280;1889;50.058;8.688;2023-04-26T07:55:15;100494.98;;;11.26;47.22
3748;BME280;1889;50.058;8.688;2023-04-26T07:57:44;100497.87;;;11.07;47.09
3748;BME280;1889;50.058;8.688;2023-04-26T08:00:14;100500.50;;;11.07;47.44
3748;BME280;1889;50.058;8.688;2023-04-26T08:02:46;100497.34;;;11.14;47.52
3748;BME280;1889;50.058;8.688;2023-04-26T08:05:16;100491.11;;;11.50;47.14
3748;BME280;1889;50.058;8.688;2023-04-26T08:07:45;100492.36;;;11.53;46.14
3748;BME280;1889;50.058;8.688;2023-04-26T08:10:14;100493.50;;;11.65;45.34
3748;BME280;1889;50.058;8.688;2023-04-26T08:12:44;100501.17;;;10.90;45.15
3748;BME280;1889;50.058;8.688;2023-04-26T08:15:13;100505.16;;;10.53;46.34
3748;BME280;1889;50.058;8.688;2023-04-26T08:17:43;100499.73;;;10.65;46.82
3748;BME280;1889;50.058;8.688;2023-04-26T08:20:12;100501.48;;;11.00;46.08
3748;BME280;1889;50.058;8.688;2023-04-26T08:22:41;100503.65;;;11.34;46.03
3748;BME280;1889;50.058;8.688;2023-04-26T08:25:11;100497.58;;;11.57;45.79
3748;BME280;1889;50.058;8.688;2023-04-26T08:27:41;100501.09;;;11.84;45.40
3748;BME280;1889;50.058;8.688;2023-04-26T08:30:11;100497.52;;;12.14;44.61
3748;BME280;1889;50.058;8.688;2023-04-26T08:32:41;100508.69;;;12.28;43.95
3748;BME280;1889;50.058;8.688;2023-04-26T08:35:10;100497.34;;;11.71;44.46
3748;BME280;1889;50.058;8.688;2023-04-26T08:37:41;100498.80;;;11.35;45.38
3748;BME280;1889;50.058;8.688;2023-04-26T08:40:10;100496.17;;;11.62;45.86
3748;BME280;1889;50.058;8.688;2023-04-26T08:42:42;100498.68;;;11.69;45.55
3748;BME280;1889;50.058;8.688;2023-04-26T08:45:12;100500.16;;;12.14;45.07
3748;BME280;1889;50.058;8.688;2023-04-26T08:47:45;100498.86;;;12.36;44.11
3748;BME280;1889;50.058;8.688;2023-04-26T08:50:17;100491.11;;;12.49;43.91
3748;BME280;1889;50.058;8.688;2023-04-26T08:52:47;100491.17;;;12.69;42.60
3748;BME280;1889;50.058;8.688;2023-04-26T08:55:20;100485.91;;;12.46;41.30
3748;BME280;1889;50.058;8.688;2023-04-26T08:57:50;100483.80;;;12.17;40.88
3748;BME280;1889;50.058;8.688;2023-04-26T09:00:19;100478.89;;;12.23;40.96
3748;BME280;1889;50.058;8.688;2023-04-26T09:02:50;100475.38;;;11.99;39.53
3748;BME280;1889;50.058;8.688;2023-04-26T09:05:20;100479.42;;;11.66;40.29
3748;BME280;1889;50.058;8.688;2023-04-26T09:07:56;100474.26;;;11.87;39.65
3748;BME280;1889;50.058;8.688;2023-04-26T09:10:23;100473.15;;;11.73;40.59
3748;BME280;1889;50.058;8.688;2023-04-26T09:12:53;100464.77;;;12.00;40.60
3748;BME280;1889;50.058;8.688;2023-04-26T09:15:25;100472.76;;;11.97;40.63
3748;BME280;1889;50.058;8.688;2023-04-26T09:17:54;100465.05;;;12.09;40.87
3748;BME280;1889;50.058;8.688;2023-04-26T09:20:26;100464.34;;;12.68;40.60
3748;BME280;1889;50.058;8.688;2023-04-26T09:23:03;100469.20;;;12.67;38.81
3748;BME280;1889;50.058;8.688;2023-04-26T09:25:34;100469.23;;;12.22;40.05
3748;BME280;1889;50.058;8.688;2023-04-26T09:28:27;100470.36;;;12.53;39.89
3748;BME280;1889;50.058;8.688;2023-04-26T09:30:38;100467.73;;;12.95;39.19
3748;BME280;1889;50.058;8.688;2023-04-26T09:33:07;100470.14;;;12.19;38.99
3748;BME280;1889;50.058;8.688;2023-04-26T09:35:37;100467.94;;;11.97;39.44
3748;BME280;1889;50.058;8.688;2023-04-26T09:38:09;100470.83;;;12.31;39.42
3748;BME280;1889;50.058;8.688;2023-04-26T09:40:48;100478.55;;;12.62;38.89
3748;BME280;1889;50.058;8.688;2023-04-26T09:43:19;100468.00;;;12.81;37.98
3748;BME280;1889;50.058;8.688;2023-04-26T09:45:52;100469.89;;;13.18;38.36
3748;BME280;1889;50.058;8.688;2023-04-26T09:48:27;100465.83;;;13.40;37.84
3748;BME280;1889;50.058;8.688;2023-04-26T09:51:07;100461.50;;;13.73;37.59
3748;BME280;1889;50.058;8.688;2023-04-26T09:53:40;100465.42;;;13.92;37.36
3748;BME280;1889;50.058;8.688;2023-04-26T09:56:08;100456.03;;;14.13;37.34
3748;BME280;1889;50.058;8.688;2023-04-26T09:58:40;100464.47;;;14.27;36.91
3748;BME280;1889;50.058;8.688;2023-04-26T10:01:10;100458.51;;;14.19;36.14
3748;BME280;1889;50.058;8.688;2023-04-26T10:03:41;100451.23;;;14.11;36.87
3748;BME280;1889;50.058;8.688;2023-04-26T10:06:13;100455.61;;;13.96;35.13
3748;BME280;1889;50.058;8.688;2023-04-26T10:08:43;100447.22;;;13.96;35.80
3748;BME280;1889;50.058;8.688;2023-04-26T10:11:12;100456.65;;;13.90;35.56
3748;BME280;1889;50.058;8.688;2023-04-26T10:13:42;100455.33;;;13.55;35.22
3748;BME280;1889;50.058;8.688;2023-04-26T10:16:12;100446.53;;;13.72;35.88
3748;BME280;1889;50.058;8.688;2023-04-26T10:18:41;100446.78;;;13.79;35.26
3748;BME280;1889;50.058;8.688;2023-04-26T10:21:35;100449.77;;;14.17;35.66
3748;BME280;1889;50.058;8.688;2023-04-26T10:23:43;100443.91;;;14.37;35.83
3748;BME280;1889;50.058;8.688;2023-04-26T10:26:49;100431.35;;;14.60;35.44
3748;BME280;1889;50.058;8.688;2023-04-26T10:29:21;100441.47;;;14.29;35.91
3748;BME280;1889;50.058;8.688;2023-04-26T10:32:04;100437.63;;;13.76;34.95
3748;BME280;1889;50.058;8.688;2023-04-26T10:34:36;100437.72;;;13.38;36.59
3748;BME280;1889;50.058;8.688;2023-04-26T10:37:07;100436.28;;;14.26;36.13
3748;BME280;1889;50.058;8.688;2023-04-26T10:39:37;100437.85;;;14.17;35.38
3748;BME280;1889;50.058;8.688;2023-04-26T10:42:21;100422.26;;;14.39;35.11
3748;BME280;1889;50.058;8.688;2023-04-26T10:44:53;100420.45;;;14.70;34.91
3748;BME280;1889;50.058;8.688;2023-04-26T10:47:30;100417.13;;;14.64;34.95
3748;BME280;1889;50.058;8.688;2023-04-26T10:50:07;100427.48;;;14.42;35.07
3748;BME280;1889;50.058;8.688;2023-04-26T10:55:41;100418.86;;;14.65;34.05
3748;BME280;1889;50.058;8.688;2023-04-26T10:58:31;100419.09;;;14.57;33.84
3748;BME280;1889;50.058;8.688;2023-04-26T11:03:35;100411.39;;;15.07;32.40
3748;BME280;1889;50.058;8.688;2023-04-26T11:06:06;100408.94;;;14.42;33.78
3748;BME280;1889;50.058;8.688;2023-04-26T11:08:36;100409.25;;;14.46;33.29
3748;BME280;1889;50.058;8.688;2023-04-26T11:11:09;100409.02;;;14.06;34.35
3748;BME280;1889;50.058;8.688;2023-04-26T11:13:39;100399.03;;;14.32;34.20
3748;BME280;1889;50.058;8.688;2023-04-26T11:16:11;100391.72;;;14.71;33.66
3748;BME280;1889;50.058;8.688;2023-04-26T11:18:42;100404.37;;;14.62;34.10
3748;BME280;1889;50.058;8.688;2023-04-26T11:21:12;100404.77;;;14.77;33.73
3748;BME280;1889;50.058;8.688;2023-04-26T11:23:53;100394.86;;;14.99;34.36
3748;BME280;1889;50.058;8.688;2023-04-26T11:26:30;100392.85;;;14.77;34.14
3748;BME280;1889;50.058;8.688;2023-04-26T11:28:55;100396.53;;;14.73;34.22
3748;BME280;1889;50.058;8.688;2023-04-26T11:31:24;100394.25;;;15.17;33.74
3748;BME280;1889;50.058;8.688;2023-04-26T11:33:59;100387.81;;;15.39;33.75
3748;BME280;1889;50.058;8.688;2023-04-26T11:36:25;100386.31;;;15.43;34.15
3748;BME280;1889;50.058;8.688;2023-04-26T11:38:56;100385.47;;;15.02;33.77
3748;BME280;1889;50.058;8.688;2023-04-26T11:41:25;100375.09;;;15.35;33.94
3748;BME280;1889;50.058;8.688;2023-04-26T11:43:54;100374.08;;;15.52;32.67
3748;BME280;1889;50.058;8.688;2023-04-26T11:46:25;100369.72;;;15.10;33.50
3748;BME280;1889;50.058;8.688;2023-04-26T11:48:55;100374.45;;;15.01;34.19
3748;BME280;1889;50.058;8.688;2023-04-26T11:51:25;100372.54;;;15.06;34.03
3748;BME280;1889;50.058;8.688;2023-04-26T11:53:54;100364.79;;;15.52;34.16
3748;BME280;1889;50.058;8.688;2023-04-26T11:56:24;100368.73;;;15.80;33.08
3748;BME280;1889;50.058;8.688;2023-04-26T11:58:53;100364.09;;;16.22;33.61
3748;BME280;1889;50.058;8.688;2023-04-26T12:01:24;100360.07;;;16.58;33.16
3748;BME280;1889;50.058;8.688;2023-04-26T12:04:00;100359.34;;;16.78;31.92
3748;BME280;1889;50.058;8.688;2023-04-26T12:06:31;100350.81;;;16.92;32.42
3748;BME280;1889;50.058;8.688;2023-04-26T12:09:01;100357.25;;;16.63;32.33
3748;BME280;1889;50.058;8.688;2023-04-26T12:11:32;100363.38;;;16.76;31.43
3748;BME280;1889;50.058;8.688;2023-04-26T12:14:02;100365.33;;;16.60;31.71
3748;BME280;1889;50.058;8.688;2023-04-26T12:16:34;100369.37;;;15.87;31.32
3748;BME280;1889;50.058;8.688;2023-04-26T12:19:04;100366.17;;;15.77;30.53
3748;BME280;1889;50.058;8.688;2023-04-26T12:21:42;100366.17;;;15.77;30.53
3748;BME280;1889;50.058;8.688;2023-04-26T12:24:23;100363.06;;;15.78;31.82
3748;BME280;1889;50.058;8.688;2023-04-26T12:26:52;100362.13;;;15.54;32.23
3748;BME280;1889;50.058;8.688;2023-04-26T12:29:22;100357.84;;;15.75;31.70
3748;BME280;1889;50.058;8.688;2023-04-26T12:31:51;100351.61;;;16.00;32.29
3748;BME280;1889;50.058;8.688;2023-04-26T12:34:20;100347.13;;;15.51;32.79
3748;BME280;1889;50.058;8.688;2023-04-26T12:36:49;100353.15;;;16.19;32.21
3748;BME280;1889;50.058;8.688;2023-04-26T12:39:19;100338.53;;;15.05;32.62
3748;BME280;1889;50.058;8.688;2023-04-26T12:41:48;100347.90;;;15.56;32.93
3748;BME280;1889;50.058;8.688;2023-04-26T12:44:17;100348.38;;;15.28;32.67
3748;BME280;1889;50.058;8.688;2023-04-26T12:46:47;100341.45;;;15.88;32.55
3748;BME280;1889;50.058;8.688;2023-04-26T12:49:16;100344.89;;;15.90;32.18
3748;BME280;1889;50.058;8.688;2023-04-26T12:51:45;100344.62;;;15.98;32.06
3748;BME280;1889;50.058;8.688;2023-04-26T12:54:15;100338.93;;;16.32;32.37
3748;BME280;1889;50.058;8.688;2023-04-26T12:56:44;100342.28;;;16.72;31.16
3748;BME280;1889;50.058;8.688;2023-04-26T12:59:13;100345.34;;;16.73;32.16
3748;BME280;1889;50.058;8.688;2023-04-26T13:01:43;100339.05;;;16.97;30.97
3748;BME280;1889;50.058;8.688;2023-04-26T13:04:12;100339.05;;;16.97;30.97
3748;BME280;1889;50.058;8.688;2023-04-26T13:06:42;100333.85;;;17.16;30.46
3748;BME280;1889;50.058;8.688;2023-04-26T13:09:11;100333.85;;;17.16;30.46
3748;BME280;1889;50.058;8.688;2023-04-26T13:11:41;100342.55;;;16.06;31.28
3748;BME280;1889;50.058;8.688;2023-04-26T13:14:10;100342.55;;;16.06;31.28
3748;BME280;1889;50.058;8.688;2023-04-26T13:16:39;100338.87;;;16.33;30.65
3748;BME280;1889;50.058;8.688;2023-04-26T13:19:10;100333.48;;;16.82;30.55
3748;BME280;1889;50.058;8.688;2023-04-26T13:21:40;100336.90;;;16.85;30.25
3748;BME280;1889;50.058;8.688;2023-04-26T13:24:09;100336.90;;;16.85;30.25
3748;BME280;1889;50.058;8.688;2023-04-26T13:26:38;100335.61;;;17.05;29.99
3748;BME280;1889;50.058;8.688;2023-04-26T13:29:08;100333.78;;;16.96;28.78
3748;BME280;1889;50.058;8.688;2023-04-26T13:31:37;100333.78;;;16.96;28.78
3748;BME280;1889;50.058;8.688;2023-04-26T13:34:07;100341.55;;;16.90;28.96
3748;BME280;1889;50.058;8.688;2023-04-26T13:36:36;100341.55;;;16.90;28.96
3748;BME280;1889;50.058;8.688;2023-04-26T13:39:06;100337.64;;;17.21;29.08